createdAt,value
2023-08-08T00:01:03.201Z,0
2023-08-08T00:02:19.498Z,0
2023-08-08T00:03:35.782Z,0
2023-08-08T00:04:52.106Z,0
2023-08-08T00:06:08.411Z,0
2023-08-08T00:07:24.690Z,0
2023-08-08T00:08:40.958Z,0
2023-08-08T00:09:57.284Z,0
2023-08-08T00:11:13.542Z,0
2023-08-08T00:12:28.000Z,0
2023-08-08T00:13:45.144Z,0
2023-08-08T00:15:01.432Z,0
2023-08-08T00:16:17.756Z,0
2023-08-08T00:17:34.045Z,0
2023-08-08T00:18:50.347Z,0
2023-08-08T00:20:06.616Z,0
2023-08-08T00:21:22.905Z,0
2023-08-08T00:22:39.230Z,0
2023-08-08T00:23:55.499Z,0
2023-08-08T00:25:11.778Z,0
2023-08-08T00:26:28.081Z,0
2023-08-08T00:27:44.376Z,0
2023-08-08T00:28:59.707Z,0
2023-08-08T00:30:15.997Z,0
2023-08-08T00:31:32.283Z,0
2023-08-08T00:32:48.000Z,0
2023-08-08T00:34:04.855Z,0
2023-08-08T00:35:21.182Z,0
2023-08-08T00:36:37.435Z,0
2023-08-08T00:37:53.749Z,0
2023-08-08T00:39:10.026Z,0
2023-08-08T00:40:26.342Z,0
2023-08-08T00:41:42.645Z,0
2023-08-08T00:42:58.909Z,0
2023-08-08T00:44:15.227Z,0
2023-08-08T00:45:30.519Z,0
2023-08-08T00:46:46.801Z,0
2023-08-08T00:48:03.128Z,0
2023-08-08T00:49:19.428Z,0
2023-08-08T00:50:35.691Z,0
2023-08-08T00:51:52.000Z,0
2023-08-08T00:53:08.272Z,0
2023-08-08T00:54:24.590Z,0
2023-08-08T00:55:40.886Z,0
2023-08-08T00:56:57.179Z,0
2023-08-08T00:58:13.446Z,0
2023-08-08T00:59:29.735Z,0
2023-08-08T01:00:46.034Z,0
2023-08-08T01:02:01.333Z,0
2023-08-08T01:03:17.630Z,0
2023-08-08T01:04:33.928Z,0
2023-08-08T01:05:50.211Z,0
2023-08-08T01:07:06.523Z,0
2023-08-08T01:08:22.821Z,0
2023-08-08T01:09:39.131Z,0
2023-08-08T01:10:55.398Z,0
2023-08-08T01:12:11.722Z,0
2023-08-08T01:13:27.989Z,0
2023-08-08T01:14:44.263Z,0
2023-08-08T01:16:00.591Z,0
2023-08-08T01:17:16.893Z,0
2023-08-08T01:18:32.165Z,0
2023-08-08T01:19:48.461Z,0
2023-08-08T01:21:04.746Z,0
2023-08-08T01:22:21.070Z,0
2023-08-08T01:23:37.337Z,0
2023-08-08T01:24:53.631Z,0
2023-08-08T01:26:09.947Z,0
2023-08-08T01:27:26.250Z,0
2023-08-08T01:28:42.500Z,0
2023-08-08T01:29:58.795Z,0
2023-08-08T01:31:15.088Z,0
2023-08-08T01:32:31.000Z,0
2023-08-08T01:33:47.675Z,0
2023-08-08T01:35:02.987Z,0
2023-08-08T01:36:19.310Z,0
2023-08-08T01:37:35.601Z,0
2023-08-08T01:38:51.000Z,0
2023-08-08T01:40:08.187Z,0
2023-08-08T01:41:24.486Z,0
2023-08-08T01:42:40.781Z,0
2023-08-08T01:43:57.043Z,0
2023-08-08T01:45:13.358Z,0
2023-08-08T01:46:29.645Z,0
2023-08-08T01:47:45.943Z,0
2023-08-08T01:49:02.237Z,0
2023-08-08T01:50:18.510Z,0
2023-08-08T01:51:33.817Z,0
2023-08-08T01:52:50.118Z,0
2023-08-08T01:54:06.403Z,0
2023-08-08T01:55:22.734Z,0
2023-08-08T01:56:38.998Z,0
2023-08-08T01:57:55.308Z,0
2023-08-08T01:59:11.579Z,0
2023-08-08T02:00:27.894Z,0
2023-08-08T02:01:44.158Z,0
2023-08-08T02:03:00.454Z,0
2023-08-08T02:04:16.750Z,0
2023-08-08T02:05:33.050Z,0
2023-08-08T02:06:49.339Z,0
2023-08-08T02:08:04.674Z,0
2023-08-08T02:09:20.958Z,0
2023-08-08T02:10:37.232Z,0
2023-08-08T02:11:53.565Z,0
2023-08-08T02:13:09.851Z,0
2023-08-08T02:14:26.126Z,0
2023-08-08T02:15:42.444Z,0
2023-08-08T02:16:58.713Z,0
2023-08-08T02:18:15.029Z,0
2023-08-08T02:19:31.313Z,0
2023-08-08T02:20:47.000Z,0
2023-08-08T02:22:03.890Z,0
2023-08-08T02:23:20.209Z,0
2023-08-08T02:24:35.488Z,0
2023-08-08T02:25:51.801Z,0
2023-08-08T02:27:08.070Z,0
2023-08-08T02:28:24.350Z,0
2023-08-08T02:29:40.685Z,0
2023-08-08T02:30:56.961Z,0
2023-08-08T02:32:13.261Z,0
2023-08-08T02:33:29.568Z,0
2023-08-08T02:34:45.850Z,0
2023-08-08T02:36:02.117Z,0
2023-08-08T02:37:18.413Z,0
2023-08-08T02:38:34.699Z,0
2023-08-08T02:39:50.992Z,0
2023-08-08T02:41:06.000Z,0
2023-08-08T02:42:22.618Z,0
2023-08-08T02:43:38.923Z,0
2023-08-08T02:44:55.192Z,0
2023-08-08T02:46:11.506Z,0
2023-08-08T02:47:27.783Z,0
2023-08-08T02:48:44.095Z,0
2023-08-08T02:50:00.365Z,0
2023-08-08T02:51:16.680Z,0
2023-08-08T02:52:32.950Z,0
2023-08-08T02:53:49.244Z,0
2023-08-08T02:55:05.537Z,0
2023-08-08T02:56:21.860Z,0
2023-08-08T02:57:37.175Z,0
2023-08-08T02:58:53.434Z,0
2023-08-08T03:00:09.731Z,0
2023-08-08T03:01:26.023Z,0
2023-08-08T03:02:42.319Z,0
2023-08-08T03:03:58.613Z,0
2023-08-08T03:05:14.930Z,0
2023-08-08T03:06:31.228Z,0
2023-08-08T03:07:47.486Z,0
2023-08-08T03:09:03.812Z,0
2023-08-08T03:10:20.083Z,0
2023-08-08T03:11:36.364Z,0
2023-08-08T03:12:52.616Z,1
2023-08-08T03:14:07.916Z,0
2023-08-08T03:15:24.215Z,0
2023-08-08T03:16:40.467Z,1
2023-08-08T03:17:56.703Z,1
2023-08-08T03:19:12.977Z,1
2023-08-08T03:20:29.233Z,0
2023-08-08T03:21:45.532Z,0
2023-08-08T03:23:01.817Z,0
2023-08-08T03:24:18.103Z,1
2023-08-08T03:25:34.400Z,0
2023-08-08T03:26:50.656Z,5
2023-08-08T03:28:06.866Z,4
2023-08-08T03:29:23.124Z,2
2023-08-08T03:30:38.363Z,2
2023-08-08T03:31:54.623Z,1
2023-08-08T03:33:10.859Z,4
2023-08-08T03:34:27.076Z,2
2023-08-08T03:35:43.308Z,3
2023-08-08T03:36:59.559Z,4
2023-08-08T03:38:14.811Z,5
2023-08-08T03:39:31.090Z,5
2023-08-08T03:40:47.292Z,10
2023-08-08T03:42:03.531Z,12
2023-08-08T03:43:19.804Z,13
2023-08-08T03:44:36.016Z,12
2023-08-08T03:45:52.282Z,13
2023-08-08T03:47:08.529Z,14
2023-08-08T03:48:24.732Z,21
2023-08-08T03:49:40.965Z,28
2023-08-08T03:50:57.246Z,27
2023-08-08T03:52:13.478Z,33
2023-08-08T03:53:29.697Z,32
2023-08-08T03:54:44.971Z,35
2023-08-08T03:56:01.214Z,37
2023-08-08T03:57:17.439Z,39
2023-08-08T03:58:33.665Z,41
2023-08-08T03:59:49.908Z,50
2023-08-08T04:01:06.134Z,50
2023-08-08T04:02:22.406Z,56
2023-08-08T04:03:38.618Z,55
2023-08-08T04:04:54.867Z,56
2023-08-08T04:06:11.120Z,61
2023-08-08T04:07:27.327Z,61
2023-08-08T04:08:43.579Z,64
2023-08-08T04:09:59.806Z,72
2023-08-08T04:11:15.062Z,79
2023-08-08T04:12:31.313Z,75
2023-08-08T04:13:47.547Z,78
2023-08-08T04:15:03.779Z,70
2023-08-08T04:16:20.018Z,66
2023-08-08T04:17:36.290Z,62
2023-08-08T04:18:52.500Z,62
2023-08-08T04:20:08.741Z,65
2023-08-08T04:21:25.012Z,68
2023-08-08T04:22:41.213Z,70
2023-08-08T04:23:57.454Z,72
2023-08-08T04:25:13.727Z,70
2023-08-08T04:26:29.933Z,72
2023-08-08T04:27:45.192Z,73
2023-08-08T04:29:01.436Z,75
2023-08-08T04:30:17.680Z,78
2023-08-08T04:31:33.923Z,80
2023-08-08T04:32:50.148Z,82
2023-08-08T04:34:06.387Z,83
2023-08-08T04:35:22.622Z,86
2023-08-08T04:36:38.900Z,109
2023-08-08T04:37:55.119Z,110
2023-08-08T04:39:11.350Z,109
2023-08-08T04:40:27.592Z,107
2023-08-08T04:41:43.830Z,98
2023-08-08T04:43:00.062Z,80
2023-08-08T04:44:15.319Z,70
2023-08-08T04:45:31.557Z,59
2023-08-08T04:46:47.794Z,58
2023-08-08T04:48:04.070Z,64
2023-08-08T04:49:20.272Z,69
2023-08-08T04:50:36.514Z,111
2023-08-08T04:51:52.761Z,147
2023-08-08T04:53:08.986Z,139
2023-08-08T04:54:25.231Z,118
2023-08-08T04:55:41.497Z,108
2023-08-08T04:56:57.727Z,110
2023-08-08T04:58:13.977Z,100
2023-08-08T04:59:30.179Z,100
2023-08-08T05:00:45.436Z,94
2023-08-08T05:02:01.725Z,93
2023-08-08T05:03:17.916Z,94
2023-08-08T05:04:34.166Z,100
2023-08-08T05:05:50.436Z,96
2023-08-08T05:07:06.634Z,98
2023-08-08T05:08:22.920Z,103
2023-08-08T05:09:39.156Z,104
2023-08-08T05:10:55.358Z,97
2023-08-08T05:12:11.630Z,98
2023-08-08T05:13:27.826Z,97
2023-08-08T05:14:44.069Z,104
2023-08-08T05:16:00.304Z,107
2023-08-08T05:17:15.569Z,107
2023-08-08T05:18:31.843Z,106
2023-08-08T05:19:48.038Z,111
2023-08-08T05:21:04.309Z,111
2023-08-08T05:22:20.518Z,116
2023-08-08T05:23:36.790Z,117
2023-08-08T05:24:52.993Z,119
2023-08-08T05:26:09.275Z,122
2023-08-08T05:27:25.475Z,122
2023-08-08T05:28:41.745Z,124
2023-08-08T05:29:57.961Z,123
2023-08-08T05:31:14.223Z,123
2023-08-08T05:32:30.428Z,127
2023-08-08T05:33:45.689Z,127
2023-08-08T05:35:01.965Z,120
2023-08-08T05:36:18.165Z,125
2023-08-08T05:37:34.414Z,123
2023-08-08T05:38:50.674Z,124
2023-08-08T05:40:06.878Z,128
2023-08-08T05:41:23.121Z,151
2023-08-08T05:42:39.393Z,163
2023-08-08T05:43:55.629Z,172
2023-08-08T05:45:11.831Z,164
2023-08-08T05:46:28.070Z,149
2023-08-08T05:47:44.319Z,159
2023-08-08T05:49:00.587Z,163
2023-08-08T05:50:15.843Z,173
2023-08-08T05:51:32.056Z,175
2023-08-08T05:52:48.327Z,183
2023-08-08T05:54:04.525Z,184
2023-08-08T05:55:20.797Z,201
2023-08-08T05:56:37.038Z,234
2023-08-08T05:57:53.246Z,239
2023-08-08T05:59:09.481Z,215
2023-08-08T06:00:25.732Z,200
2023-08-08T06:01:41.994Z,183
2023-08-08T06:02:58.196Z,165
2023-08-08T06:04:14.470Z,152
2023-08-08T06:05:30.676Z,143
2023-08-08T06:06:47.043Z,134
2023-08-08T06:08:03.282Z,129
2023-08-08T06:09:19.510Z,122
2023-08-08T06:10:35.753Z,123
2023-08-08T06:11:51.993Z,137
2023-08-08T06:13:08.219Z,162
2023-08-08T06:14:24.472Z,177
2023-08-08T06:15:40.707Z,211
2023-08-08T06:16:56.947Z,256
2023-08-08T06:18:13.183Z,283
2023-08-08T06:19:29.419Z,286
2023-08-08T06:20:45.653Z,282
2023-08-08T06:22:01.910Z,297
2023-08-08T06:23:17.148Z,352
2023-08-08T06:24:33.393Z,384
2023-08-08T06:25:49.625Z,410
2023-08-08T06:27:05.866Z,408
2023-08-08T06:28:22.116Z,358
2023-08-08T06:29:38.357Z,326
2023-08-08T06:30:54.594Z,358
2023-08-08T06:32:10.828Z,391
2023-08-08T06:33:27.077Z,422
2023-08-08T06:34:43.309Z,432
2023-08-08T06:35:59.550Z,411
2023-08-08T06:37:15.774Z,390
2023-08-08T06:38:32.000Z,380
2023-08-08T06:39:47.269Z,391
2023-08-08T06:41:03.514Z,415
2023-08-08T06:42:19.759Z,446
2023-08-08T06:43:35.994Z,472
2023-08-08T06:44:52.234Z,497
2023-08-08T06:46:08.476Z,488
2023-08-08T06:47:24.707Z,504
2023-08-08T06:48:40.939Z,520
2023-08-08T06:49:57.180Z,565
2023-08-08T06:51:13.443Z,587
2023-08-08T06:52:29.663Z,620
2023-08-08T06:53:45.903Z,621
2023-08-08T06:55:02.146Z,611
2023-08-08T06:56:18.494Z,668
2023-08-08T06:57:34.741Z,658
2023-08-08T06:58:50.981Z,675
2023-08-08T07:00:07.212Z,681
2023-08-08T07:01:23.461Z,693
2023-08-08T07:02:39.690Z,714
2023-08-08T07:03:55.938Z,726
2023-08-08T07:05:12.165Z,699
2023-08-08T07:06:28.415Z,713
2023-08-08T07:07:44.643Z,694
2023-08-08T07:09:00.885Z,672
2023-08-08T07:10:17.130Z,664
2023-08-08T07:11:33.364Z,751
2023-08-08T07:12:48.618Z,721
2023-08-08T07:14:04.850Z,464
2023-08-08T07:15:21.091Z,998
2023-08-08T07:16:37.334Z,1084
2023-08-08T07:17:53.565Z,475
2023-08-08T07:19:09.808Z,1126
2023-08-08T07:20:26.045Z,895
2023-08-08T07:21:42.000Z,852
2023-08-08T07:22:58.537Z,781
2023-08-08T07:24:14.759Z,667
2023-08-08T07:25:31.009Z,1264
2023-08-08T07:26:47.237Z,967
2023-08-08T07:28:03.482Z,890
2023-08-08T07:29:18.745Z,777
2023-08-08T07:30:34.975Z,737
2023-08-08T07:31:51.213Z,723
2023-08-08T07:33:07.452Z,678
2023-08-08T07:34:23.691Z,556
2023-08-08T07:35:39.933Z,398
2023-08-08T07:36:56.165Z,302
2023-08-08T07:38:12.415Z,296
2023-08-08T07:39:28.645Z,298
2023-08-08T07:40:44.880Z,267
2023-08-08T07:42:01.131Z,253
2023-08-08T07:43:17.356Z,252
2023-08-08T07:44:33.621Z,237
2023-08-08T07:45:48.853Z,225
2023-08-08T07:47:05.094Z,226
2023-08-08T07:48:21.341Z,216
2023-08-08T07:49:37.572Z,208
2023-08-08T07:50:53.808Z,221
2023-08-08T07:52:10.041Z,227
2023-08-08T07:53:26.423Z,205
2023-08-08T07:54:42.654Z,178
2023-08-08T07:55:58.884Z,166
2023-08-08T07:57:15.143Z,168
2023-08-08T07:58:31.362Z,171
2023-08-08T07:59:47.619Z,158
2023-08-08T08:01:03.855Z,155
2023-08-08T08:02:20.083Z,178
2023-08-08T08:03:36.317Z,174
2023-08-08T08:04:52.556Z,155
2023-08-08T08:06:08.807Z,152
2023-08-08T08:07:25.037Z,158
2023-08-08T08:08:41.287Z,182
2023-08-08T08:09:56.531Z,249
2023-08-08T08:11:12.764Z,359
2023-08-08T08:12:29.005Z,467
2023-08-08T08:13:45.259Z,524
2023-08-08T08:15:01.484Z,599
2023-08-08T08:16:17.720Z,632
2023-08-08T08:17:33.000Z,648
2023-08-08T08:18:50.199Z,672
2023-08-08T08:20:06.436Z,666
2023-08-08T08:21:22.680Z,530
2023-08-08T08:22:38.914Z,499
2023-08-08T08:23:55.154Z,606
2023-08-08T08:25:11.390Z,595
2023-08-08T08:26:26.648Z,461
2023-08-08T08:27:42.884Z,404
2023-08-08T08:28:59.129Z,376
2023-08-08T08:30:15.364Z,318
2023-08-08T08:31:31.618Z,313
2023-08-08T08:32:47.849Z,288
2023-08-08T08:34:04.077Z,250
2023-08-08T08:35:20.318Z,251
2023-08-08T08:36:36.562Z,274
2023-08-08T08:37:52.807Z,266
2023-08-08T08:39:09.032Z,246
2023-08-08T08:40:25.271Z,262
2023-08-08T08:41:41.510Z,284
2023-08-08T08:42:56.772Z,298
2023-08-08T08:44:13.004Z,337
2023-08-08T08:45:29.251Z,356
2023-08-08T08:46:45.490Z,378
2023-08-08T08:48:01.721Z,355
2023-08-08T08:49:17.960Z,334
2023-08-08T08:50:34.205Z,303
2023-08-08T08:51:50.435Z,330
2023-08-08T08:53:06.676Z,349
2023-08-08T08:54:22.913Z,368
2023-08-08T08:55:39.169Z,377
2023-08-08T08:56:55.397Z,432
2023-08-08T08:58:11.638Z,442
2023-08-08T08:59:26.901Z,451
2023-08-08T09:00:43.127Z,484
2023-08-08T09:01:59.369Z,524
2023-08-08T09:03:15.628Z,589
2023-08-08T09:04:31.866Z,541
2023-08-08T09:05:48.105Z,499
2023-08-08T09:07:04.320Z,462
2023-08-08T09:08:20.559Z,430
2023-08-08T09:09:36.794Z,391
2023-08-08T09:10:53.043Z,340
2023-08-08T09:12:09.271Z,443
2023-08-08T09:13:25.520Z,554
2023-08-08T09:14:41.754Z,664
2023-08-08T09:15:57.008Z,653
2023-08-08T09:17:13.257Z,648
2023-08-08T09:18:29.487Z,611
2023-08-08T09:19:45.725Z,618
2023-08-08T09:21:01.970Z,660
2023-08-08T09:22:18.209Z,689
2023-08-08T09:23:34.438Z,696
2023-08-08T09:24:50.000Z,726
2023-08-08T09:26:06.922Z,778
2023-08-08T09:27:23.165Z,947
2023-08-08T09:28:39.407Z,1198
2023-08-08T09:29:55.656Z,1209
2023-08-08T09:31:11.874Z,1087
2023-08-08T09:32:27.132Z,972
2023-08-08T09:33:43.362Z,1052
2023-08-08T09:34:59.609Z,1220
2023-08-08T09:36:15.841Z,1184
2023-08-08T09:37:32.080Z,925
2023-08-08T09:38:48.325Z,802
2023-08-08T09:40:04.556Z,730
2023-08-08T09:41:20.794Z,680
2023-08-08T09:42:37.033Z,625
2023-08-08T09:43:53.291Z,655
2023-08-08T09:45:09.520Z,844
2023-08-08T09:46:25.757Z,1078
2023-08-08T09:47:42.001Z,1186
2023-08-08T09:48:57.249Z,1236
2023-08-08T09:50:13.482Z,1229
2023-08-08T09:51:29.730Z,743
2023-08-08T09:52:45.974Z,2294
2023-08-08T09:54:02.205Z,1624
2023-08-08T09:55:18.448Z,1509
2023-08-08T09:56:34.672Z,1689
2023-08-08T09:57:50.920Z,1329
2023-08-08T09:59:07.162Z,1105
2023-08-08T10:00:23.390Z,1106
2023-08-08T10:01:39.000Z,1150
2023-08-08T10:02:55.871Z,766
2023-08-08T10:04:12.122Z,1372
2023-08-08T10:05:27.360Z,2370
2023-08-08T10:06:43.608Z,1908
2023-08-08T10:07:59.843Z,1779
2023-08-08T10:09:16.080Z,1927
2023-08-08T10:10:32.324Z,1980
2023-08-08T10:11:48.567Z,1860
2023-08-08T10:13:04.796Z,1582
2023-08-08T10:14:21.046Z,1559
2023-08-08T10:15:37.276Z,1578
2023-08-08T10:16:53.510Z,1573
2023-08-08T10:18:09.756Z,2208
2023-08-08T10:19:25.992Z,1788
2023-08-08T10:20:42.234Z,1646
2023-08-08T10:21:57.498Z,1572
2023-08-08T10:23:13.718Z,1009
2023-08-08T10:24:29.974Z,3904
2023-08-08T10:25:46.208Z,1683
2023-08-08T10:27:02.453Z,2138
2023-08-08T10:28:18.702Z,2065
2023-08-08T10:29:34.930Z,1947
2023-08-08T10:30:51.159Z,1110
2023-08-08T10:32:07.407Z,2783
2023-08-08T10:33:23.000Z,2431
2023-08-08T10:34:39.880Z,1364
2023-08-08T10:35:56.000Z,998
2023-08-08T10:37:12.359Z,703
2023-08-08T10:38:27.613Z,644
2023-08-08T10:39:43.846Z,613
2023-08-08T10:41:00.088Z,560
2023-08-08T10:42:16.329Z,538
2023-08-08T10:43:32.563Z,545
2023-08-08T10:44:48.000Z,451
2023-08-08T10:46:05.046Z,507
2023-08-08T10:47:21.275Z,718
2023-08-08T10:48:37.519Z,864
2023-08-08T10:49:53.757Z,1005
2023-08-08T10:51:09.996Z,903
2023-08-08T10:52:26.241Z,762
2023-08-08T10:53:42.483Z,755
2023-08-08T10:54:57.725Z,698
2023-08-08T10:56:13.962Z,723
2023-08-08T10:57:30.000Z,966
2023-08-08T10:58:46.444Z,807
2023-08-08T11:00:02.682Z,727
2023-08-08T11:01:18.947Z,776
2023-08-08T11:02:35.167Z,699
2023-08-08T11:03:51.407Z,601
2023-08-08T11:05:07.645Z,548
2023-08-08T11:06:23.881Z,545
2023-08-08T11:07:40.000Z,725
2023-08-08T11:08:56.356Z,877
2023-08-08T11:10:12.618Z,952
2023-08-08T11:11:27.848Z,1360
2023-08-08T11:12:44.103Z,1865
2023-08-08T11:14:00.329Z,1121
2023-08-08T11:15:16.563Z,4173
2023-08-08T11:16:32.801Z,2215
2023-08-08T11:17:49.054Z,6027
2023-08-08T11:19:05.297Z,2792
2023-08-08T11:20:21.535Z,1004
2023-08-08T11:21:37.764Z,1272
2023-08-08T11:22:54.011Z,3481
2023-08-08T11:24:10.242Z,1120
2023-08-08T11:25:26.475Z,978
2023-08-08T11:26:42.711Z,1231
2023-08-08T11:27:57.981Z,877
2023-08-08T11:29:14.209Z,3837
2023-08-08T11:30:30.462Z,1406
2023-08-08T11:31:46.697Z,696
2023-08-08T11:33:02.932Z,1903
2023-08-08T11:34:19.184Z,1133
2023-08-08T11:35:35.415Z,1580
2023-08-08T11:38:07.000Z,6728
2023-08-08T11:39:24.118Z,1302
2023-08-08T11:40:40.358Z,7005
2023-08-08T11:41:56.610Z,2656
2023-08-08T11:43:12.843Z,1003
2023-08-08T11:44:28.110Z,4959
2023-08-08T11:45:44.335Z,1952
2023-08-08T11:47:00.571Z,1173
2023-08-08T11:48:16.818Z,1034
2023-08-08T11:49:33.061Z,968
2023-08-08T11:50:49.310Z,2015
2023-08-08T11:52:05.533Z,953
2023-08-08T11:53:21.770Z,1589
2023-08-08T11:54:38.024Z,8069
2023-08-08T11:55:54.246Z,1511
2023-08-08T11:57:10.493Z,5308
2023-08-08T11:58:26.732Z,5170
2023-08-08T11:59:42.964Z,5218
2023-08-08T12:00:59.335Z,5052
2023-08-08T12:02:15.561Z,8681
2023-08-08T12:03:31.806Z,3200
2023-08-08T12:04:48.061Z,1831
2023-08-08T12:06:04.290Z,8359
2023-08-08T12:07:20.512Z,1472
2023-08-08T12:08:35.791Z,8680
2023-08-08T12:09:52.020Z,1528
2023-08-08T12:11:08.279Z,7507
2023-08-08T12:12:24.494Z,8004
2023-08-08T12:13:40.732Z,2511
2023-08-08T12:14:56.976Z,2233
2023-08-08T12:16:13.230Z,1425
2023-08-08T12:17:29.458Z,1196
2023-08-08T12:18:45.717Z,1140
2023-08-08T12:20:01.927Z,970
2023-08-08T12:21:18.166Z,763
2023-08-08T12:22:34.409Z,553
2023-08-08T12:23:50.646Z,459
2023-08-08T12:25:05.909Z,402
2023-08-08T12:26:22.155Z,387
2023-08-08T12:27:38.397Z,381
2023-08-08T12:28:54.618Z,368
2023-08-08T12:30:10.859Z,406
2023-08-08T12:31:27.100Z,384
2023-08-08T12:32:43.350Z,364
2023-08-08T12:33:59.574Z,346
2023-08-08T12:35:15.822Z,360
2023-08-08T12:36:32.070Z,398
2023-08-08T12:37:48.000Z,531
2023-08-08T12:39:04.000Z,553
2023-08-08T12:40:20.778Z,578
2023-08-08T12:41:36.034Z,621
2023-08-08T12:42:52.280Z,404
2023-08-08T12:44:08.000Z,1038
2023-08-08T12:45:24.755Z,6432
2023-08-08T12:46:40.988Z,5897
2023-08-08T12:47:57.234Z,6219
2023-08-08T12:49:13.463Z,6196
2023-08-08T12:50:29.710Z,6061
2023-08-08T12:51:45.939Z,6624
2023-08-08T12:53:02.205Z,7668
2023-08-08T12:54:18.432Z,7367
2023-08-08T12:55:34.676Z,3623
2023-08-08T12:56:50.899Z,1970
2023-08-08T12:58:06.155Z,1197
2023-08-08T12:59:22.396Z,1741
2023-08-08T13:00:38.643Z,1559
2023-08-08T13:01:54.870Z,1060
2023-08-08T13:03:11.108Z,4459
2023-08-08T13:04:27.376Z,9153
2023-08-08T13:05:43.609Z,1643
2023-08-08T13:06:59.842Z,10329
2023-08-08T13:08:16.070Z,1958
2023-08-08T13:09:32.314Z,9403
2023-08-08T13:10:48.556Z,4000
2023-08-08T13:12:04.000Z,2710
2023-08-08T13:13:21.045Z,2332
2023-08-08T13:14:36.306Z,1715
2023-08-08T13:15:52.533Z,1536
2023-08-08T13:17:08.779Z,1415
2023-08-08T13:18:25.006Z,1324
2023-08-08T13:19:41.000Z,724
2023-08-08T13:20:57.485Z,3234
2023-08-08T13:22:13.730Z,1018
2023-08-08T13:23:29.969Z,709
2023-08-08T13:24:46.220Z,687
2023-08-08T13:26:02.441Z,773
2023-08-08T13:27:18.683Z,766
2023-08-08T13:28:34.928Z,701
2023-08-08T13:29:51.172Z,628
2023-08-08T13:31:06.425Z,561
2023-08-08T13:32:22.669Z,453
2023-08-08T13:33:38.894Z,444
2023-08-08T13:34:55.000Z,443
2023-08-08T13:36:11.000Z,397
2023-08-08T13:37:27.612Z,333
2023-08-08T13:38:43.850Z,295
2023-08-08T13:40:00.085Z,349
2023-08-08T13:41:16.000Z,487
2023-08-08T13:42:32.578Z,649
2023-08-08T13:43:48.000Z,718
2023-08-08T13:45:05.064Z,692
2023-08-08T13:46:21.287Z,739
2023-08-08T13:47:36.558Z,663
2023-08-08T13:48:52.784Z,570
2023-08-08T13:50:09.023Z,555
2023-08-08T13:51:25.260Z,563
2023-08-08T13:52:41.502Z,504
2023-08-08T13:53:57.000Z,562
2023-08-08T13:55:13.989Z,590
2023-08-08T13:56:30.230Z,661
2023-08-08T13:57:46.460Z,699
2023-08-08T13:59:02.711Z,650
2023-08-08T14:00:18.954Z,619
2023-08-08T14:01:35.188Z,633
2023-08-08T14:02:51.414Z,703
2023-08-08T14:04:07.773Z,762
2023-08-08T14:05:24.042Z,947
2023-08-08T14:06:40.258Z,1457
2023-08-08T14:07:56.517Z,1220
2023-08-08T14:09:12.733Z,770
2023-08-08T14:10:28.967Z,532
2023-08-08T14:11:45.223Z,484
2023-08-08T14:13:01.454Z,592
2023-08-08T14:14:17.701Z,670
2023-08-08T14:15:33.939Z,485
2023-08-08T14:16:50.195Z,330
2023-08-08T14:18:06.411Z,236
2023-08-08T14:19:22.662Z,351
2023-08-08T14:20:37.913Z,450
2023-08-08T14:21:54.138Z,381
2023-08-08T14:23:10.378Z,414
2023-08-08T14:24:26.616Z,501
2023-08-08T14:25:42.872Z,552
2023-08-08T14:26:59.113Z,546
2023-08-08T14:28:15.343Z,491
2023-08-08T14:29:31.605Z,444
2023-08-08T14:30:47.833Z,581
2023-08-08T14:32:04.057Z,1035
2023-08-08T14:33:20.292Z,927
2023-08-08T14:34:36.531Z,890
2023-08-08T14:35:52.773Z,870
2023-08-08T14:37:08.028Z,810
2023-08-08T14:38:24.269Z,752
2023-08-08T14:39:40.506Z,867
2023-08-08T14:40:56.762Z,819
2023-08-08T14:42:12.983Z,845
2023-08-08T14:43:29.239Z,868
2023-08-08T14:44:45.464Z,796
2023-08-08T14:46:01.724Z,849
2023-08-08T14:47:17.951Z,793
2023-08-08T14:48:34.196Z,677
2023-08-08T14:49:50.443Z,576
2023-08-08T14:51:06.667Z,392
2023-08-08T14:52:22.915Z,412
2023-08-08T14:53:38.157Z,535
2023-08-08T14:54:54.418Z,643
2023-08-08T14:56:10.647Z,417
2023-08-08T14:57:26.876Z,248
2023-08-08T14:58:43.130Z,224
2023-08-08T14:59:59.360Z,233
2023-08-08T15:01:15.613Z,261
2023-08-08T15:02:31.845Z,339
2023-08-08T15:03:48.070Z,472
2023-08-08T15:05:04.321Z,534
2023-08-08T15:06:20.568Z,519
2023-08-08T15:07:36.820Z,614
2023-08-08T15:08:53.047Z,583
2023-08-08T15:10:08.300Z,357
2023-08-08T15:11:24.532Z,238
2023-08-08T15:12:40.776Z,222
2023-08-08T15:13:57.006Z,256
2023-08-08T15:15:13.242Z,302
2023-08-08T15:16:29.478Z,326
2023-08-08T15:17:45.739Z,339
2023-08-08T15:19:01.000Z,354
2023-08-08T15:20:18.216Z,306
2023-08-08T15:21:34.435Z,292
2023-08-08T15:22:50.677Z,336
2023-08-08T15:24:06.914Z,367
2023-08-08T15:25:23.159Z,322
2023-08-08T15:26:38.427Z,638
2023-08-08T15:27:54.650Z,667
2023-08-08T15:29:10.913Z,685
2023-08-08T15:30:27.124Z,586
2023-08-08T15:31:43.369Z,574
2023-08-08T15:32:59.618Z,809
2023-08-08T15:34:15.875Z,787
2023-08-08T15:35:32.101Z,754
2023-08-08T15:36:48.339Z,740
2023-08-08T15:38:04.580Z,745
2023-08-08T15:39:20.832Z,555
2023-08-08T15:40:37.039Z,506
2023-08-08T15:41:53.284Z,483
2023-08-08T15:43:08.558Z,513
2023-08-08T15:44:24.811Z,524
2023-08-08T15:45:41.044Z,518
2023-08-08T15:46:57.258Z,544
2023-08-08T15:48:13.492Z,583
2023-08-08T15:49:29.729Z,563
2023-08-08T15:50:45.979Z,508
2023-08-08T15:52:02.208Z,2888
2023-08-08T15:53:18.480Z,1224
2023-08-08T15:54:34.718Z,999
2023-08-08T15:55:50.944Z,1019
2023-08-08T15:57:07.168Z,872
2023-08-08T15:58:23.425Z,692
2023-08-08T15:59:38.693Z,1648
2023-08-08T16:00:54.000Z,1442
2023-08-08T16:02:11.141Z,1129
2023-08-08T16:03:27.384Z,1308
2023-08-08T16:04:43.625Z,2040
2023-08-08T16:05:59.889Z,1132
2023-08-08T16:07:16.097Z,1339
2023-08-08T16:08:32.346Z,1211
2023-08-08T16:09:48.582Z,1451
2023-08-08T16:11:04.833Z,1238
2023-08-08T16:12:21.068Z,1101
2023-08-08T16:13:37.321Z,1033
2023-08-08T16:14:53.552Z,1000
2023-08-08T16:16:08.000Z,946
2023-08-08T16:17:25.025Z,470
2023-08-08T16:18:41.280Z,1379
2023-08-08T16:19:57.508Z,652
2023-08-08T16:21:13.760Z,1251
2023-08-08T16:22:30.001Z,6460
2023-08-08T16:23:45.000Z,1488
2023-08-08T16:25:01.493Z,1403
2023-08-08T16:26:17.737Z,673
2023-08-08T16:27:33.976Z,3227
2023-08-08T16:28:50.228Z,788
2023-08-08T16:30:06.440Z,4191
2023-08-08T16:31:22.673Z,1053
2023-08-08T16:32:38.916Z,1451
2023-08-08T16:33:55.180Z,983
2023-08-08T16:35:11.402Z,494
2023-08-08T16:36:27.651Z,2870
2023-08-08T16:37:43.882Z,785
2023-08-08T16:39:00.128Z,584
2023-08-08T16:40:15.385Z,485
2023-08-08T16:41:31.609Z,416
2023-08-08T16:42:47.857Z,383
2023-08-08T16:44:04.113Z,406
2023-08-08T16:45:20.331Z,436
2023-08-08T16:46:36.562Z,417
2023-08-08T16:47:52.798Z,381
2023-08-08T16:49:09.059Z,336
2023-08-08T16:50:25.290Z,321
2023-08-08T16:51:41.535Z,277
2023-08-08T16:52:57.774Z,265
2023-08-08T16:54:14.003Z,283
2023-08-08T16:55:30.263Z,281
2023-08-08T16:56:45.519Z,307
2023-08-08T16:58:01.742Z,350
2023-08-08T16:59:17.986Z,435
2023-08-08T17:00:34.238Z,427
2023-08-08T17:01:50.481Z,382
2023-08-08T17:03:06.713Z,346
2023-08-08T17:04:22.000Z,347
2023-08-08T17:05:39.170Z,350
2023-08-08T17:06:55.411Z,310
2023-08-08T17:08:11.638Z,250
2023-08-08T17:09:27.878Z,204
2023-08-08T17:10:44.128Z,110
2023-08-08T17:12:00.000Z,390
2023-08-08T17:13:15.613Z,191
2023-08-08T17:14:31.875Z,136
2023-08-08T17:15:48.125Z,378
2023-08-08T17:17:04.329Z,401
2023-08-08T17:18:20.581Z,260
2023-08-08T17:19:36.000Z,270
2023-08-08T17:20:53.074Z,339
2023-08-08T17:22:09.296Z,383
2023-08-08T17:23:25.558Z,375
2023-08-08T17:24:41.762Z,390
2023-08-08T17:25:58.011Z,390
2023-08-08T17:27:14.273Z,318
2023-08-08T17:28:30.509Z,343
2023-08-08T17:29:45.755Z,738
2023-08-08T17:31:01.976Z,1467
2023-08-08T17:32:18.229Z,446
2023-08-08T17:33:34.484Z,945
2023-08-08T17:34:50.696Z,772
2023-08-08T17:36:06.960Z,1107
2023-08-08T17:37:23.000Z,1456
2023-08-08T17:38:39.419Z,284
2023-08-08T17:39:55.678Z,477
2023-08-08T17:41:11.918Z,931